Detroit, Michigan
Traffic Map
Current Weather Conditions
Detroit, Michigan
Overcast Light Snow
Overcast
-5°
Feels Like: -8°
Wind Chill: -8° Ceiling: 2100
Heat Index: -5° Visibility: 2mi
Dew Point: -6° Wind: 5mph
Humidity: 93% Direction: 200° (SSW)
Pressure: 30.34in Gusts: 0mph
Raw Report DataCYQG 111000Z 20004KT 2SM -SN OVC021 M05/M06 A3034 RMK SC8 /S02/ SLP286
Traffic Incident Summary
Active as of:
Severity:
Category:
InformationThere was an issue retrieving the traffic information for this location. Please try a different location or try again shortly.
Advertisements
Track Severe Weather on mobile